PWSweather.com
Personal Weather Stations
Station Observations

YeovilGB

Lat: 50.949, Lon: -2.627

Elevation: 70

Station Type: Vantage Pro

http://www.yeovil-weather.me.uk/

High Low Average
Temperature 42.5°F5.8°C 37.5°F3.1°C 40.6°F4.8°C
Dew Point 40.7°F4.8°C 36.2°F2.3°C 38.2°F3.4°C
Winds 3.5 mph 5.6 kmh Calm Calm Calm SCalm S
Wind Gusts 6.9 mph11.1 kmh -- 1.0 mph1.6 kmh
Humidity 96% 83% 91%
Pressure 30.27 in1025.1 mb 29.85 in1010.8 mb -
Precipitation 0.00 in0.0 mm - -
Hour Temp Dew Point Humidity Winds Wind Gusts Pressure Precip Precip Rate Daily Precip Total
12:00 AM 42.0°F5.6°C 40.7°F4.8°C 95% Calm Calm -- 29.85 in1010.8 mb - 0.00 in0.0 mm 0.00 in0.0 mm
12:10 AM 41.9°F5.5°C 40.6°F4.8°C 95% Calm Calm -- 29.86 in1011.2 mb - 0.00 in0.0 mm 0.00 in0.0 mm
12:20 AM 41.8°F5.4°C 40.5°F4.7°C 95% Calm Calm -- 29.86 in1011.2 mb - 0.00 in0.0 mm 0.00 in0.0 mm
12:30 AM 41.8°F5.4°C 40.5°F4.7°C 95% Calm Calm -- 29.86 in1011.2 mb - 0.00 in0.0 mm 0.00 in0.0 mm
12:40 AM 41.8°F5.4°C 40.5°F4.7°C 95% Calm Calm -- 29.86 in1011.2 mb - 0.00 in0.0 mm 0.00 in0.0 mm
12:50 AM 41.8°F5.4°C 40.5°F4.7°C 95% Calm Calm -- 29.86 in1011.2 mb - 0.00 in0.0 mm 0.00 in0.0 mm
01:00 AM 41.7°F5.4°C 40.4°F4.7°C 95% Calm Calm -- 29.86 in1011.2 mb - 0.00 in0.0 mm 0.00 in0.0 mm
01:10 AM 41.6°F5.3°C 40.3°F4.6°C 95% Calm Calm -- 29.86 in1011.2 mb - 0.00 in0.0 mm 0.00 in0.0 mm
01:20 AM 41.5°F5.3°C 40.2°F4.6°C 95% Calm Calm -- 29.87 in1011.5 mb - 0.00 in0.0 mm 0.00 in0.0 mm
01:30 AM 41.5°F5.3°C 40.2°F4.6°C 95% Calm Calm -- 29.87 in1011.5 mb - 0.00 in0.0 mm 0.00 in0.0 mm
01:40 AM 41.4°F5.2°C 40.1°F4.5°C 95% Calm Calm -- 29.87 in1011.5 mb - 0.00 in0.0 mm 0.00 in0.0 mm
01:50 AM 41.3°F5.2°C 40.0°F4.4°C 95% Calm Calm -- 29.87 in1011.5 mb - 0.00 in0.0 mm 0.00 in0.0 mm
02:00 AM 41.2°F5.1°C 39.9°F4.4°C 95% Calm Calm -- 29.88 in1011.9 mb - 0.00 in0.0 mm 0.00 in0.0 mm
02:10 AM 41.1°F5.1°C 39.8°F4.3°C 95% Calm Calm -- 29.88 in1011.9 mb - 0.00 in0.0 mm 0.00 in0.0 mm
02:20 AM 41.1°F5.1°C 39.7°F4.3°C 95% Calm Calm -- 29.89 in1012.2 mb - 0.00 in0.0 mm 0.00 in0.0 mm
02:30 AM 41.0°F5.0°C 39.7°F4.3°C 95% Calm Calm -- 29.89 in1012.2 mb - 0.00 in0.0 mm 0.00 in0.0 mm
02:40 AM 41.0°F5.0°C 39.7°F4.3°C 95% Calm Calm -- 29.89 in1012.2 mb - 0.00 in0.0 mm 0.00 in0.0 mm
02:50 AM 41.0°F5.0°C 39.7°F4.3°C 95% Calm Calm -- 29.89 in1012.2 mb - 0.00 in0.0 mm 0.00 in0.0 mm
03:00 AM 40.9°F4.9°C 39.6°F4.2°C 95% Calm Calm -- 29.89 in1012.2 mb - 0.00 in0.0 mm 0.00 in0.0 mm
03:10 AM 40.9°F4.9°C 39.6°F4.2°C 95% Calm Calm -- 29.90 in1012.5 mb - 0.00 in0.0 mm 0.00 in0.0 mm
03:20 AM 40.9°F4.9°C 39.6°F4.2°C 95% Calm Calm -- 29.90 in1012.5 mb - 0.00 in0.0 mm 0.00 in0.0 mm
03:30 AM 40.9°F4.9°C 39.6°F4.2°C 95% Calm Calm -- 29.90 in1012.5 mb - 0.00 in0.0 mm 0.00 in0.0 mm
03:40 AM 40.8°F4.9°C 39.5°F4.2°C 95% Calm Calm -- 29.90 in1012.5 mb - 0.00 in0.0 mm 0.00 in0.0 mm
03:50 AM 40.7°F4.8°C 39.4°F4.1°C 95% Calm Calm -- 29.91 in1012.9 mb - 0.00 in0.0 mm 0.00 in0.0 mm
04:00 AM 40.7°F4.8°C 39.4°F4.1°C 95% Calm Calm -- 29.91 in1012.9 mb - 0.00 in0.0 mm 0.00 in0.0 mm
04:10 AM 40.6°F4.8°C 39.3°F4.1°C 95% Calm Calm 1.2 mph1.9 kmh 29.91 in1012.9 mb - 0.00 in0.0 mm 0.00 in0.0 mm
04:20 AM 40.4°F4.7°C 39.1°F3.9°C 95% Calm Calm -- 29.91 in1012.9 mb - 0.00 in0.0 mm 0.00 in0.0 mm
04:30 AM 40.4°F4.7°C 39.1°F3.9°C 95% Calm Calm -- 29.91 in1012.9 mb - 0.00 in0.0 mm 0.00 in0.0 mm
04:40 AM 40.3°F4.6°C 39.0°F3.9°C 95% Calm Calm -- 29.92 in1013.2 mb - 0.00 in0.0 mm 0.00 in0.0 mm
04:50 AM 40.3°F4.6°C 39.0°F3.9°C 95% Calm Calm -- 29.92 in1013.2 mb - 0.00 in0.0 mm 0.00 in0.0 mm
05:00 AM 40.3°F4.6°C 39.0°F3.9°C 95% Calm Calm -- 29.92 in1013.2 mb - 0.00 in0.0 mm 0.00 in0.0 mm
05:10 AM 40.2°F4.6°C 38.9°F3.8°C 95% Calm Calm -- 29.92 in1013.2 mb - 0.00 in0.0 mm 0.00 in0.0 mm
05:20 AM 40.2°F4.6°C 38.9°F3.8°C 95% Calm Calm -- 29.93 in1013.5 mb - 0.00 in0.0 mm 0.00 in0.0 mm
05:30 AM 40.2°F4.6°C 38.9°F3.8°C 95% Calm Calm -- 29.93 in1013.5 mb - 0.00 in0.0 mm 0.00 in0.0 mm
05:40 AM 40.1°F4.5°C 38.8°F3.8°C 95% Calm Calm -- 29.93 in1013.5 mb - 0.00 in0.0 mm 0.00 in0.0 mm
05:50 AM 40.2°F4.6°C 38.9°F3.8°C 95% Calm Calm -- 29.93 in1013.5 mb - 0.00 in0.0 mm 0.00 in0.0 mm
06:00 AM 40.2°F4.6°C 38.9°F3.8°C 95% Calm Calm -- 29.94 in1013.9 mb - 0.00 in0.0 mm 0.00 in0.0 mm
06:10 AM 40.2°F4.6°C 38.9°F3.8°C 95% Calm Calm -- 29.94 in1013.9 mb - 0.00 in0.0 mm 0.00 in0.0 mm
06:20 AM 40.2°F4.6°C 38.9°F3.8°C 95% Calm Calm -- 29.94 in1013.9 mb - 0.00 in0.0 mm 0.00 in0.0 mm
06:30 AM 40.2°F4.6°C 38.9°F3.8°C 95% Calm Calm -- 29.95 in1014.2 mb - 0.00 in0.0 mm 0.00 in0.0 mm
06:40 AM 40.2°F4.6°C 38.9°F3.8°C 95% Calm Calm -- 29.95 in1014.2 mb - 0.00 in0.0 mm 0.00 in0.0 mm
06:50 AM 40.1°F4.5°C 38.8°F3.8°C 95% Calm Calm -- 29.96 in1014.6 mb - 0.00 in0.0 mm 0.00 in0.0 mm
07:00 AM 39.9°F4.4°C 38.6°F3.7°C 95% Calm Calm -- 29.96 in1014.6 mb - 0.00 in0.0 mm 0.00 in0.0 mm
07:10 AM 39.6°F4.2°C 38.3°F3.5°C 95% Calm Calm -- 29.97 in1014.9 mb - 0.00 in0.0 mm 0.00 in0.0 mm
07:20 AM 39.4°F4.1°C 38.1°F3.4°C 95% Calm Calm 1.2 mph1.9 kmh 29.97 in1014.9 mb - 0.00 in0.0 mm 0.00 in0.0 mm
07:30 AM 39.3°F4.1°C 38.0°F3.3°C 95% Calm Calm 1.2 mph1.9 kmh 29.98 in1015.2 mb - 0.00 in0.0 mm 0.00 in0.0 mm
07:40 AM 39.2°F4.0°C 37.9°F3.3°C 95% Calm Calm -- 29.98 in1015.2 mb - 0.00 in0.0 mm 0.00 in0.0 mm
07:50 AM 38.9°F3.8°C 37.6°F3.1°C 95% Calm Calm -- 29.98 in1015.2 mb - 0.00 in0.0 mm 0.00 in0.0 mm
08:00 AM 38.5°F3.6°C 37.2°F2.9°C 95% Calm Calm -- 29.99 in1015.6 mb - 0.00 in0.0 mm 0.00 in0.0 mm
08:10 AM 38.3°F3.5°C 37.0°F2.8°C 95% Calm Calm -- 30.00 in1015.9 mb - 0.00 in0.0 mm 0.00 in0.0 mm
08:20 AM 38.1°F3.4°C 36.8°F2.7°C 95% Calm Calm -- 30.00 in1015.9 mb - 0.00 in0.0 mm 0.00 in0.0 mm
08:30 AM 37.9°F3.3°C 36.6°F2.6°C 95% Calm Calm -- 30.01 in1016.3 mb - 0.00 in0.0 mm 0.00 in0.0 mm
08:40 AM 37.7°F3.2°C 36.4°F2.4°C 95% Calm Calm -- 30.01 in1016.3 mb - 0.00 in0.0 mm 0.00 in0.0 mm
08:50 AM 37.5°F3.1°C 36.2°F2.3°C 95% Calm Calm -- 30.02 in1016.6 mb - 0.00 in0.0 mm 0.00 in0.0 mm
09:00 AM 37.5°F3.1°C 36.2°F2.3°C 95% Calm Calm -- 30.03 in1016.9 mb - 0.00 in0.0 mm 0.00 in0.0 mm
09:10 AM 37.6°F3.1°C 36.3°F2.4°C 95% Calm Calm -- 30.03 in1016.9 mb - 0.00 in0.0 mm 0.00 in0.0 mm
09:20 AM 37.9°F3.3°C 36.6°F2.6°C 95% Calm Calm -- 30.04 in1017.3 mb - 0.00 in0.0 mm 0.00 in0.0 mm
09:30 AM 38.2°F3.4°C 36.9°F2.7°C 95% Calm Calm 3.5 mph5.6 kmh 30.04 in1017.3 mb - 0.00 in0.0 mm 0.00 in0.0 mm
09:40 AM 38.4°F3.6°C 37.4°F3.0°C 96% Calm Calm -- 30.05 in1017.6 mb - 0.00 in0.0 mm 0.00 in0.0 mm
09:50 AM 38.4°F3.6°C 37.1°F2.8°C 95% Calm Calm 1.2 mph1.9 kmh 30.05 in1017.6 mb - 0.00 in0.0 mm 0.00 in0.0 mm
10:00 AM 38.7°F3.7°C 37.4°F3.0°C 95% Calm Calm 3.5 mph5.6 kmh 30.05 in1017.6 mb - 0.00 in0.0 mm 0.00 in0.0 mm
10:10 AM 39.1°F3.9°C 37.8°F3.2°C 95% 1.2 mph NNW1.9 kmh NNW 4.6 mph7.4 kmh 30.06 in1017.9 mb - 0.00 in0.0 mm 0.00 in0.0 mm
10:20 AM 39.5°F4.2°C 38.1°F3.4°C 95% Calm Calm -- 30.06 in1017.9 mb - 0.00 in0.0 mm 0.00 in0.0 mm
10:30 AM 39.5°F4.2°C 38.2°F3.4°C 95% Calm Calm 2.3 mph3.7 kmh 30.07 in1018.3 mb - 0.00 in0.0 mm 0.00 in0.0 mm
10:40 AM 39.9°F4.4°C 38.3°F3.5°C 94% Calm Calm -- 30.07 in1018.3 mb - 0.00 in0.0 mm 0.00 in0.0 mm
10:50 AM 40.9°F4.9°C 39.4°F4.1°C 94% Calm Calm -- 30.07 in1018.3 mb - 0.00 in0.0 mm 0.00 in0.0 mm
11:00 AM 41.7°F5.4°C 39.5°F4.2°C 92% Calm Calm 2.3 mph3.7 kmh 30.08 in1018.6 mb - 0.00 in0.0 mm 0.00 in0.0 mm
11:10 AM 41.6°F5.3°C 38.9°F3.8°C 90% Calm Calm 4.6 mph7.4 kmh 30.08 in1018.6 mb - 0.00 in0.0 mm 0.00 in0.0 mm
11:20 AM 41.5°F5.3°C 38.8°F3.8°C 90% Calm Calm -- 30.08 in1018.6 mb - 0.00 in0.0 mm 0.00 in0.0 mm
11:30 AM 41.6°F5.3°C 38.9°F3.8°C 90% 1.2 mph N1.9 kmh N 3.5 mph5.6 kmh 30.08 in1018.6 mb - 0.00 in0.0 mm 0.00 in0.0 mm
11:40 AM 41.8°F5.4°C 39.1°F3.9°C 90% 1.2 mph NW1.9 kmh NW -- 30.08 in1018.6 mb - 0.00 in0.0 mm 0.00 in0.0 mm
11:50 AM 41.9°F5.5°C 38.9°F3.8°C 89% Calm Calm -- 30.08 in1018.6 mb - 0.00 in0.0 mm 0.00 in0.0 mm
12:00 PM 41.8°F5.4°C 38.8°F3.8°C 89% 2.3 mph N3.7 kmh N 4.6 mph7.4 kmh 30.08 in1018.6 mb - 0.00 in0.0 mm 0.00 in0.0 mm
12:10 PM 41.6°F5.3°C 38.3°F3.5°C 88% Calm Calm 1.2 mph1.9 kmh 30.09 in1019.0 mb - 0.00 in0.0 mm 0.00 in0.0 mm
12:20 PM 41.8°F5.4°C 38.5°F3.6°C 88% 2.3 mph NW3.7 kmh NW 1.2 mph1.9 kmh 30.09 in1019.0 mb - 0.00 in0.0 mm 0.00 in0.0 mm
12:30 PM 42.0°F5.6°C 38.7°F3.7°C 88% Calm Calm -- 30.09 in1019.0 mb - 0.00 in0.0 mm 0.00 in0.0 mm
12:40 PM 42.2°F5.7°C 38.3°F3.5°C 86% Calm Calm -- 30.09 in1019.0 mb - 0.00 in0.0 mm 0.00 in0.0 mm
12:50 PM 42.4°F5.8°C 38.5°F3.6°C 86% 3.5 mph N5.6 kmh N 5.8 mph9.3 kmh 30.09 in1019.0 mb - 0.00 in0.0 mm 0.00 in0.0 mm
01:00 PM 42.3°F5.7°C 38.4°F3.6°C 86% 1.2 mph N1.9 kmh N -- 30.09 in1019.0 mb - 0.00 in0.0 mm 0.00 in0.0 mm
01:10 PM 42.3°F5.7°C 38.4°F3.6°C 86% 3.5 mph NW5.6 kmh NW 5.8 mph9.3 kmh 30.09 in1019.0 mb - 0.00 in0.0 mm 0.00 in0.0 mm
01:20 PM 42.3°F5.7°C 38.4°F3.6°C 86% 1.2 mph NW1.9 kmh NW 3.5 mph5.6 kmh 30.09 in1019.0 mb - 0.00 in0.0 mm 0.00 in0.0 mm
01:30 PM 42.4°F5.8°C 38.5°F3.6°C 86% 2.3 mph NW3.7 kmh NW 3.5 mph5.6 kmh 30.09 in1019.0 mb - 0.00 in0.0 mm 0.00 in0.0 mm
01:40 PM 42.3°F5.7°C 38.4°F3.6°C 86% 2.3 mph NNW3.7 kmh NNW 3.5 mph5.6 kmh 30.10 in1019.3 mb - 0.00 in0.0 mm 0.00 in0.0 mm
01:50 PM 42.3°F5.7°C 38.4°F3.6°C 86% 2.3 mph N3.7 kmh N 5.8 mph9.3 kmh 30.10 in1019.3 mb - 0.00 in0.0 mm 0.00 in0.0 mm
02:00 PM 42.0°F5.6°C 37.5°F3.1°C 84% 1.2 mph N1.9 kmh N 6.9 mph11.1 kmh 30.10 in1019.3 mb - 0.00 in0.0 mm 0.00 in0.0 mm
02:10 PM 41.9°F5.5°C 37.1°F2.8°C 83% Calm Calm 1.2 mph1.9 kmh 30.10 in1019.3 mb - 0.00 in0.0 mm 0.00 in0.0 mm
02:20 PM 42.1°F5.6°C 37.6°F3.1°C 84% Calm Calm 2.3 mph3.7 kmh 30.10 in1019.3 mb - 0.00 in0.0 mm 0.00 in0.0 mm
02:30 PM 42.2°F5.7°C 37.7°F3.2°C 84% 1.2 mph N1.9 kmh N 4.6 mph7.4 kmh 30.11 in1019.6 mb - 0.00 in0.0 mm 0.00 in0.0 mm
02:40 PM 42.4°F5.8°C 37.9°F3.3°C 84% Calm Calm 5.8 mph9.3 kmh 30.11 in1019.6 mb - 0.00 in0.0 mm 0.00 in0.0 mm
02:50 PM 42.5°F5.8°C 38.3°F3.5°C 85% Calm Calm 3.5 mph5.6 kmh 30.11 in1019.6 mb - 0.00 in0.0 mm 0.00 in0.0 mm
03:00 PM 42.4°F5.8°C 38.2°F3.4°C 85% Calm Calm -- 30.12 in1020.0 mb - 0.00 in0.0 mm 0.00 in0.0 mm
03:10 PM 42.4°F5.8°C 38.5°F3.6°C 86% 1.2 mph NNW1.9 kmh NNW 4.6 mph7.4 kmh 30.12 in1020.0 mb - 0.00 in0.0 mm 0.00 in0.0 mm
03:20 PM 42.3°F5.7°C 38.4°F3.6°C 86% Calm Calm -- 30.13 in1020.3 mb - 0.00 in0.0 mm 0.00 in0.0 mm
03:30 PM 42.0°F5.6°C 38.1°F3.4°C 86% Calm Calm 1.2 mph1.9 kmh 30.13 in1020.3 mb - 0.00 in0.0 mm 0.00 in0.0 mm
03:40 PM 41.8°F5.4°C 37.9°F3.3°C 86% Calm Calm 1.2 mph1.9 kmh 30.14 in1020.7 mb - 0.00 in0.0 mm 0.00 in0.0 mm
03:50 PM 41.6°F5.3°C 37.7°F3.2°C 86% Calm Calm -- 30.14 in1020.7 mb - 0.00 in0.0 mm 0.00 in0.0 mm
04:00 PM 41.5°F5.3°C 37.6°F3.1°C 86% Calm Calm -- 30.14 in1020.7 mb - 0.00 in0.0 mm 0.00 in0.0 mm
04:10 PM 41.4°F5.2°C 37.5°F3.1°C 86% 1.2 mph N1.9 kmh N 1.2 mph1.9 kmh 30.14 in1020.7 mb - 0.00 in0.0 mm 0.00 in0.0 mm
04:20 PM 41.3°F5.2°C 37.4°F3.0°C 86% Calm Calm -- 30.14 in1020.7 mb - 0.00 in0.0 mm 0.00 in0.0 mm
04:30 PM 41.2°F5.1°C 37.3°F2.9°C 86% Calm Calm -- 30.15 in1021.0 mb - 0.00 in0.0 mm 0.00 in0.0 mm
04:40 PM 41.1°F5.1°C 37.5°F3.1°C 87% Calm Calm -- 30.15 in1021.0 mb - 0.00 in0.0 mm 0.00 in0.0 mm
04:50 PM 41.0°F5.0°C 37.4°F3.0°C 87% Calm Calm -- 30.16 in1021.3 mb - 0.00 in0.0 mm 0.00 in0.0 mm
05:00 PM 40.9°F4.9°C 37.3°F2.9°C 87% Calm Calm -- 30.15 in1021.0 mb - 0.00 in0.0 mm 0.00 in0.0 mm
05:10 PM 40.8°F4.9°C 37.2°F2.9°C 87% Calm Calm -- 30.16 in1021.3 mb - 0.00 in0.0 mm 0.00 in0.0 mm
05:20 PM 40.7°F4.8°C 37.1°F2.8°C 87% Calm Calm -- 30.17 in1021.7 mb - 0.00 in0.0 mm 0.00 in0.0 mm
05:30 PM 40.7°F4.8°C 37.1°F2.8°C 87% Calm Calm -- 30.17 in1021.7 mb - 0.00 in0.0 mm 0.00 in0.0 mm
05:40 PM 40.6°F4.8°C 37.1°F2.8°C 87% Calm Calm -- 30.18 in1022.0 mb - 0.00 in0.0 mm 0.00 in0.0 mm
05:50 PM 40.6°F4.8°C 37.0°F2.8°C 87% Calm Calm -- 30.18 in1022.0 mb - 0.00 in0.0 mm 0.00 in0.0 mm
06:00 PM 40.5°F4.7°C 37.3°F2.9°C 88% Calm Calm -- 30.18 in1022.0 mb - 0.00 in0.0 mm 0.00 in0.0 mm
06:10 PM 40.5°F4.7°C 36.9°F2.7°C 87% Calm Calm -- 30.19 in1022.4 mb - 0.00 in0.0 mm 0.00 in0.0 mm
06:20 PM 40.5°F4.7°C 37.2°F2.9°C 88% Calm Calm -- 30.18 in1022.0 mb - 0.00 in0.0 mm 0.00 in0.0 mm
06:30 PM 40.4°F4.7°C 37.1°F2.8°C 88% Calm Calm -- 30.20 in1022.7 mb - 0.00 in0.0 mm 0.00 in0.0 mm
06:40 PM 40.4°F4.7°C 37.1°F2.8°C 88% Calm Calm -- 30.20 in1022.7 mb - 0.00 in0.0 mm 0.00 in0.0 mm
06:50 PM 40.4°F4.7°C 37.4°F3.0°C 89% Calm Calm -- 30.20 in1022.7 mb - 0.00 in0.0 mm 0.00 in0.0 mm
07:00 PM 40.4°F4.7°C 37.4°F3.0°C 89% Calm Calm -- 30.21 in1023.0 mb - 0.00 in0.0 mm 0.00 in0.0 mm
07:10 PM 40.4°F4.7°C 37.4°F3.0°C 89% Calm Calm -- 30.21 in1023.0 mb - 0.00 in0.0 mm 0.00 in0.0 mm
07:20 PM 40.4°F4.7°C 37.7°F3.2°C 90% Calm Calm -- 30.21 in1023.0 mb - 0.00 in0.0 mm 0.00 in0.0 mm
07:30 PM 40.3°F4.6°C 37.6°F3.1°C 90% Calm Calm -- 30.21 in1023.0 mb - 0.00 in0.0 mm 0.00 in0.0 mm
07:40 PM 40.2°F4.6°C 37.5°F3.1°C 90% Calm Calm -- 30.22 in1023.4 mb - 0.00 in0.0 mm 0.00 in0.0 mm
07:50 PM 40.2°F4.6°C 37.5°F3.1°C 90% Calm Calm 3.5 mph5.6 kmh 30.22 in1023.4 mb - 0.00 in0.0 mm 0.00 in0.0 mm
08:10 PM 40.1°F4.5°C 37.4°F3.0°C 90% Calm Calm -- 30.23 in1023.7 mb - 0.00 in0.0 mm 0.00 in0.0 mm
08:20 PM 40.1°F4.5°C 37.1°F2.8°C 89% Calm Calm -- 30.23 in1023.7 mb - 0.00 in0.0 mm 0.00 in0.0 mm
08:30 PM 40.1°F4.5°C 37.1°F2.8°C 89% Calm Calm -- 30.23 in1023.7 mb - 0.00 in0.0 mm 0.00 in0.0 mm
08:40 PM 40.1°F4.5°C 37.1°F2.8°C 89% Calm Calm -- 30.23 in1023.7 mb - 0.00 in0.0 mm 0.00 in0.0 mm
08:50 PM 40.1°F4.5°C 37.4°F3.0°C 90% Calm Calm -- 30.23 in1023.7 mb - 0.00 in0.0 mm 0.00 in0.0 mm
09:00 PM 40.2°F4.6°C 37.5°F3.1°C 90% Calm Calm -- 30.23 in1023.7 mb - 0.00 in0.0 mm 0.00 in0.0 mm
09:10 PM 40.2°F4.6°C 37.5°F3.1°C 90% Calm Calm -- 30.24 in1024.0 mb - 0.00 in0.0 mm 0.00 in0.0 mm
09:20 PM 40.3°F4.6°C 37.6°F3.1°C 90% Calm Calm -- 30.24 in1024.0 mb - 0.00 in0.0 mm 0.00 in0.0 mm
09:30 PM 40.4°F4.7°C 37.7°F3.2°C 90% Calm Calm -- 30.24 in1024.0 mb - 0.00 in0.0 mm 0.00 in0.0 mm
09:40 PM 40.4°F4.7°C 37.7°F3.2°C 90% Calm Calm -- 30.24 in1024.0 mb - 0.00 in0.0 mm 0.00 in0.0 mm
09:50 PM 40.2°F4.6°C 37.8°F3.2°C 91% Calm Calm -- 30.25 in1024.4 mb - 0.00 in0.0 mm 0.00 in0.0 mm
10:00 PM 40.1°F4.5°C 37.7°F3.2°C 91% Calm Calm -- 30.25 in1024.4 mb - 0.00 in0.0 mm 0.00 in0.0 mm
10:10 PM 39.9°F4.4°C 37.5°F3.1°C 91% Calm Calm -- 30.25 in1024.4 mb - 0.00 in0.0 mm 0.00 in0.0 mm
10:20 PM 39.7°F4.3°C 37.3°F2.9°C 91% Calm Calm -- 30.25 in1024.4 mb - 0.00 in0.0 mm 0.00 in0.0 mm
10:30 PM 39.6°F4.2°C 37.2°F2.9°C 91% Calm Calm -- 30.25 in1024.4 mb - 0.00 in0.0 mm 0.00 in0.0 mm
10:40 PM 39.5°F4.2°C 37.1°F2.8°C 91% Calm Calm -- 30.25 in1024.4 mb - 0.00 in0.0 mm 0.00 in0.0 mm
10:50 PM 39.4°F4.1°C 37.3°F2.9°C 92% Calm Calm 1.2 mph1.9 kmh 30.26 in1024.7 mb - 0.00 in0.0 mm 0.00 in0.0 mm
11:00 PM 39.5°F4.2°C 37.4°F3.0°C 92% Calm Calm -- 30.27 in1025.1 mb - 0.00 in0.0 mm 0.00 in0.0 mm
11:10 PM 39.6°F4.2°C 37.7°F3.2°C 93% Calm Calm -- 30.27 in1025.1 mb - 0.00 in0.0 mm 0.00 in0.0 mm
11:20 PM 39.6°F4.2°C 37.7°F3.2°C 93% Calm Calm -- 30.27 in1025.1 mb - 0.00 in0.0 mm 0.00 in0.0 mm
11:30 PM 39.5°F4.2°C 37.4°F3.0°C 92% Calm Calm -- 30.27 in1025.1 mb - 0.00 in0.0 mm 0.00 in0.0 mm
11:40 PM 39.5°F4.2°C 37.6°F3.1°C 93% Calm Calm -- 30.27 in1025.1 mb - 0.00 in0.0 mm 0.00 in0.0 mm
11:50 PM 39.5°F4.2°C 37.6°F3.1°C 93% Calm Calm -- 30.27 in1025.1 mb - 0.00 in0.0 mm 0.00 in0.0 mm